WetterOnline ( https://www.wetteronline.de )

Wetter aktuell Marienberg

Aktuelles Wetter: Marienberg (640m)

6-stündlich | Neueste Meldungen
Ortszeit Temperatur Wetter
Di, 11.05. 14:00 24.2° C leicht bewölkt
Di, 11.05. 8:00 16.5° C bedeckt
Di, 11.05. 2:00 17.0° C bedeckt
Mo, 10.05. 20:00 22.2° C leicht bewölkt
Mo, 10.05. 14:00 24.8° C wolkenlos
Mo, 10.05. 8:00 14.3° C wolkig
Mo, 10.05. 2:00 13.9° C wolkig
So, 09.05. 20:00 20.2° C wolkig
Ortszeit Temperatur Wetter
Di, 11.05. 15:30 24.2° C fast wolkenlos
Di, 11.05. 15:20 24.2° C fast wolkenlos
Di, 11.05. 15:10 24.1° C fast wolkenlos
Di, 11.05. 15:00 24.4° C fast wolkenlos
Di, 11.05. 14:50 24.4° C fast wolkenlos
Di, 11.05. 14:40 24.2° C wolkenlos
Di, 11.05. 14:30 23.6° C wolkenlos
Di, 11.05. 14:00 24.2° C leicht bewölkt
Di, 11.05. 13:30 24.3° C leicht bewölkt
Di, 11.05. 13:00 23.6° C leicht bewölkt
Di, 11.05. 12:30 23.4° C wolkig
Ortszeit Relative Feuchte Sichtweite
Di, 11.05. 14:00 43% 55 km
Di, 11.05. 8:00 68% 45 km
Di, 11.05. 2:00 61% 55 km
Mo, 10.05. 20:00 48% 60 km
Mo, 10.05. 14:00 36% 35 km
Mo, 10.05. 8:00 55% 45 km
Mo, 10.05. 2:00 60% >70 km
So, 09.05. 20:00 43% >70 km
Ortszeit Relative Feuchte Sichtweite
Di, 11.05. 15:30 40% >70 km
Di, 11.05. 15:20 40% -
Di, 11.05. 15:10 40% -
Di, 11.05. 15:00 39% 35 km
Di, 11.05. 14:50 39% -
Di, 11.05. 14:40 40% -
Di, 11.05. 14:30 41% 65 km
Di, 11.05. 14:00 43% 55 km
Di, 11.05. 13:30 44% 45 km
Di, 11.05. 13:00 42% 40 km
Di, 11.05. 12:30 42% 50 km
Ortszeit Niederschlagsmenge Niederschlagsart
Di, 11.05. 14:00 0.0 l/m2 in 6 Std. -
Di, 11.05. 8:00 0.0 l/m2 in 12 Std. -
Di, 11.05. 2:00 0.0 l/m2 in 6 Std. -
Mo, 10.05. 20:00 0.0 l/m2 in 12 Std. -
Mo, 10.05. 14:00 0.0 l/m2 in 6 Std. -
Mo, 10.05. 8:00 0.0 l/m2 in 12 Std. -
Mo, 10.05. 2:00 0.0 l/m2 in 6 Std. -
So, 09.05. 20:00 0.0 l/m2 in 12 Std. -
Ortszeit Niederschlagsmenge Niederschlagsart
Di, 11.05. 15:30 0.0 l/m2 in 1 Std. -
Di, 11.05. 15:20 keine Meldung -
Di, 11.05. 15:10 keine Meldung -
Di, 11.05. 15:00 0.0 l/m2 in 1 Std. -
Di, 11.05. 14:50 keine Meldung -
Di, 11.05. 14:40 keine Meldung -
Di, 11.05. 14:30 0.0 l/m2 in 1 Std. -
Di, 11.05. 14:00 0.0 l/m2 in 1 Std. -
Di, 11.05. 13:30 0.0 l/m2 in 1 Std. -
Di, 11.05. 13:00 0.0 l/m2 in 1 Std. -
Di, 11.05. 12:30 0.0 l/m2 in 1 Std. -
Ortszeit Stärke Spitze Richtung
km/h Bft. km/h Grad Sektor
Di, 11.05. 14:00 11 2 22 140° SO
Di, 11.05. 8:00 7 2 43 210° SW
Di, 11.05. 2:00 13 3 31 120° SO
Mo, 10.05. 20:00 14 3 32 140° SO
Mo, 10.05. 14:00 14 3 36 230° SW
Mo, 10.05. 8:00 13 3 31 130° SO
Mo, 10.05. 2:00 13 3 44 120° SO
So, 09.05. 20:00 13 3 41 130° SO
Ortszeit Stärke Spitze Richtung
km/h Bft. km/h Grad Sektor
Di, 11.05. 15:30 13 3 28 140° SO
Di, 11.05. 15:20 13 3 - 140° SO
Di, 11.05. 15:10 14 3 - 160° S
Di, 11.05. 15:00 11 2 29 160° S
Di, 11.05. 14:50 11 2 - 160° S
Di, 11.05. 14:40 14 3 - 200° S
Di, 11.05. 14:30 13 3 26 170° S
Di, 11.05. 14:00 11 2 22 140° SO
Di, 11.05. 13:30 11 2 22 130° SO
Di, 11.05. 13:00 7 2 19 280° W
Di, 11.05. 12:30 6 1 15 220° SW
Ortszeit Untergrenze Bedeckung Gattung
total tief tief mittel hoch
Di, 11.05. 14:00 9000 m 3/8 0/8 - - -
Di, 11.05. 8:00 3900 m 8/8 8/8 - - -
Di, 11.05. 2:00 4200 m 8/8 8/8 - - -
Mo, 10.05. 20:00 7200 m 6/8 0/8 - - -
Mo, 10.05. 14:00 - 0/8 0/8 - - -
Mo, 10.05. 8:00 6900 m 6/8 2/8 - - -
Mo, 10.05. 2:00 7800 m 8/8 0/8 - - -
So, 09.05. 20:00 7800 m 8/8 0/8 - - -
Ortszeit Bedeckungsgrad in Achtel und Wolkenuntergrenze
Di, 11.05. 15:30 2(9000m)
Di, 11.05. 15:20 2(9000m)
Di, 11.05. 15:10 1(8700m)
Di, 11.05. 15:00 1(8700m)
Di, 11.05. 14:50 1(8700m)
Di, 11.05. 14:40 keine Wolken
Di, 11.05. 14:30 keine Wolken
Di, 11.05. 14:00 3(9000m)
Di, 11.05. 13:30 4(9000m)
Di, 11.05. 13:00 2(4500m)
Di, 11.05. 12:30 5(4500m)
Ortszeit Luftdruck NN (hPa) Tendenz (hPa in 3 Std.)
Di, 11.05. 14:00 1002 - 0,7
Di, 11.05. 8:00 1006 - 0,2
Di, 11.05. 2:00 1007 - 1,9
Mo, 10.05. 20:00 1007 0,0
Mo, 10.05. 14:00 1006 + 0,2
Mo, 10.05. 8:00 1008 + 0,5
Mo, 10.05. 2:00 1008 - 1,1
So, 09.05. 20:00 1008 - 1,5
Ortszeit Luftdruck NN (hPa) Tendenz (hPa in 3 Std.)
Di, 11.05. 15:30 1002 - 0,6
Di, 11.05. 15:20 1002 keine Meldung
Di, 11.05. 15:10 1002 keine Meldung
Di, 11.05. 15:00 1002 - 0,6
Di, 11.05. 14:50 1002 keine Meldung
Di, 11.05. 14:40 1002 keine Meldung
Di, 11.05. 14:30 1002 - 0,5
Di, 11.05. 14:00 1002 - 0,7
Di, 11.05. 13:30 1002 - 0,8
Di, 11.05. 13:00 1002 - 1,2
Di, 11.05. 12:30 1003 - 0,7
Ortszeit Schneehöhe (cm)
Di, 11.05. 14:00 0
Di, 11.05. 8:00 0
Di, 11.05. 2:00 0
Mo, 10.05. 20:00 0
Mo, 10.05. 14:00 0
Mo, 10.05. 8:00 0
Mo, 10.05. 2:00 0
So, 09.05. 20:00 0
Ortszeit Schneehöhe (cm)
Di, 11.05. 15:30 0
Di, 11.05. 15:20 0
Di, 11.05. 15:10 0
Di, 11.05. 15:00 0
Di, 11.05. 14:50 0
Di, 11.05. 14:40 0
Di, 11.05. 14:30 0
Di, 11.05. 14:00 0
Di, 11.05. 13:30 0
Di, 11.05. 13:00 0
Di, 11.05. 12:30 0
Link zu dieser Seite / Seite empfehlen

Das Wetter in ...